Time;durP1;ratioP1;P1;durP2;ratioP2;P2;SDS_P1;SDS_P2;PMS_P1;PMS_P2;Temp;Humidity;BMP_temperature;BMP_pressure;BME280_temperature;BME280_humidity;BME280_pressure;Samples;Min_cycle;Max_cycle;Signal;HPM_P1;HPM_P2
2022/12/29 00:00:18;;;;;;;7.72;4.42;;;;;;;;;;1905185;75;21028;-49
2022/12/29 00:02:47;;;;;;;8.80;4.15;;;;;;;;;;1905287;75;21031;-50
2022/12/29 00:05:16;;;;;;;7.87;4.35;;;;;;;;;;1905161;75;21153;-49
2022/12/29 00:07:44;;;;;;;6.72;4.25;;;;;;;;;;1905172;75;21093;-50
2022/12/29 00:10:13;;;;;;;8.03;4.70;;;;;;;;;;1905230;75;21007;-49
2022/12/29 00:18:01;;;;;;;5.37;4.62;;;;;;;;;;1905204;75;21097;-49
2022/12/29 00:37:13;;;;;;;5.92;4.17;;;;;;;;;;1905352;75;21101;-49
2022/12/29 00:45:16;;;;;;;7.83;3.85;;;;;;;;;;1905362;75;21093;-50
2022/12/29 00:47:44;;;;;;;12.15;5.20;;;;;;;;;;1905301;75;21157;-50
2022/12/29 00:50:13;;;;;;;7.42;4.42;;;;;;;;;;1905361;75;21043;-49
2022/12/29 00:52:42;;;;;;;8.90;4.53;;;;;;;;;;1905387;75;21089;-52
2022/12/29 00:55:11;;;;;;;8.38;4.70;;;;;;;;;;1905342;74;21039;-49
2022/12/29 00:57:39;;;;;;;7.20;4.80;;;;;;;;;;1905368;75;21067;-51
2022/12/29 01:00:08;;;;;;;8.58;4.95;;;;;;;;;;1905284;75;21082;-48
2022/12/29 01:02:37;;;;;;;7.97;4.83;;;;;;;;;;1905423;75;21003;-49
2022/12/29 01:05:06;;;;;;;9.73;5.00;;;;;;;;;;1905396;75;21004;-48
2022/12/29 01:07:34;;;;;;;11.33;5.05;;;;;;;;;;1905312;75;21027;-50
2022/12/29 01:10:14;;;;;;;9.78;5.00;;;;;;;;;;1905400;75;21000;-49
2022/12/29 01:12:44;;;;;;;8.28;4.78;;;;;;;;;;1905420;75;21020;-52
2022/12/29 01:15:14;;;;;;;14.38;6.40;;;;;;;;;;1905413;75;21060;-49
2022/12/29 01:17:43;;;;;;;7.08;5.25;;;;;;;;;;1905368;75;21058;-49
2022/12/29 01:20:12;;;;;;;9.10;5.22;;;;;;;;;;1905357;75;21031;-49
2022/12/29 01:22:42;;;;;;;11.40;4.87;;;;;;;;;;1905299;75;21097;-49
2022/12/29 01:25:10;;;;;;;11.35;5.75;;;;;;;;;;1905294;75;20980;-49
2022/12/29 01:27:40;;;;;;;7.30;5.42;;;;;;;;;;1905397;75;21102;-50
2022/12/29 01:30:09;;;;;;;11.53;5.92;;;;;;;;;;1905300;75;20983;-50
2022/12/29 01:32:37;;;;;;;8.28;5.05;;;;;;;;;;1905282;75;21023;-51
2022/12/29 01:35:06;;;;;;;9.13;5.83;;;;;;;;;;1905268;75;21032;-51
2022/12/29 01:37:36;;;;;;;7.33;4.78;;;;;;;;;;1905280;75;21097;-49
2022/12/29 01:40:05;;;;;;;7.58;4.67;;;;;;;;;;1905329;75;21063;-50
2022/12/29 01:42:34;;;;;;;12.05;5.25;;;;;;;;;;1905396;75;21028;-51
2022/12/29 01:45:04;;;;;;;8.80;4.87;;;;;;;;;;1905456;75;21004;-50
2022/12/29 01:47:34;;;;;;;10.23;4.67;;;;;;;;;;1905387;75;21081;-49
2022/12/29 01:50:04;;;;;;;8.98;5.30;;;;;;;;;;1905314;75;21035;-49
2022/12/29 01:52:33;;;;;;;7.30;4.42;;;;;;;;;;1905314;74;21077;-49
2022/12/29 01:55:04;;;;;;;9.43;5.05;;;;;;;;;;1913002;74;21058;-50
2022/12/29 01:57:33;;;;;;;8.33;5.60;;;;;;;;;;1924766;74;21085;-49
2022/12/29 02:00:03;;;;;;;8.73;5.37;;;;;;;;;;1924845;74;21035;-50
2022/12/29 02:02:34;;;;;;;9.63;5.58;;;;;;;;;;1923641;74;21083;-49
2022/12/29 02:05:07;;;;;;;15.95;5.12;;;;;;;;;;1924822;74;21011;-49
2022/12/29 02:07:35;;;;;;;11.05;5.08;;;;;;;;;;1924725;74;21067;-48
2022/12/29 02:10:04;;;;;;;9.83;5.72;;;;;;;;;;1924732;74;20995;-49
2022/12/29 02:12:33;;;;;;;10.55;5.75;;;;;;;;;;1924699;74;21007;-49
2022/12/29 02:15:02;;;;;;;9.95;5.60;;;;;;;;;;1924612;74;21390;-49
2022/12/29 02:17:51;;;;;;;16.02;6.53;;;;;;;;;;1924643;74;21104;-52
2022/12/29 02:20:27;;;;;;;6.95;4.92;;;;;;;;;;1924593;74;21105;-50
2022/12/29 02:23:03;;;;;;;10.82;5.85;;;;;;;;;;1923962;74;20999;-51
2022/12/29 02:25:39;;;;;;;9.23;5.37;;;;;;;;;;1879834;74;21109;-49
2022/12/29 02:28:26;;;;;;;9.93;5.62;;;;;;;;;;1924791;74;21043;-50
2022/12/29 02:30:59;;;;;;;10.40;5.00;;;;;;;;;;1924676;74;21077;-50
2022/12/29 02:33:32;;;;;;;8.45;4.97;;;;;;;;;;1924693;74;21081;-51
2022/12/29 02:36:03;;;;;;;18.75;5.67;;;;;;;;;;1924834;74;21027;-50
2022/12/29 02:38:33;;;;;;;11.65;5.75;;;;;;;;;;1924308;74;21010;-49
2022/12/29 02:41:03;;;;;;;10.88;5.60;;;;;;;;;;1898230;74;21027;-49
2022/12/29 02:43:48;;;;;;;8.20;5.12;;;;;;;;;;1924565;74;21010;-50
2022/12/29 02:46:36;;;;;;;8.13;5.40;;;;;;;;;;1924896;74;21068;-52
2022/12/29 02:49:06;;;;;;;13.05;5.33;;;;;;;;;;1924797;74;21148;-49
2022/12/29 02:51:36;;;;;;;13.08;4.87;;;;;;;;;;1924640;74;21014;-50
2022/12/29 02:56:51;;;;;;;12.80;4.97;;;;;;;;;;1905760;74;21066;-50
2022/12/29 02:59:20;;;;;;;13.30;4.62;;;;;;;;;;1905295;75;21082;-49
2022/12/29 03:02:16;;;;;;;9.93;4.10;;;;;;;;;;1905228;75;21032;-49
2022/12/29 03:04:49;;;;;;;7.42;4.70;;;;;;;;;;1905264;75;21008;-49
2022/12/29 03:07:25;;;;;;;7.58;3.90;;;;;;;;;;1905340;75;21069;-49
2022/12/29 03:09:55;;;;;;;8.00;4.60;;;;;;;;;;1904616;74;21015;-49
2022/12/29 03:12:35;;;;;;;;;;;;;;;;;;;;;
2022/12/29 03:17:54;;;;;;;7.62;4.50;;;;;;;;;;1905276;75;21012;-48
2022/12/29 03:20:24;;;;;;;7.85;4.62;;;;;;;;;;1905374;75;21020;-49
2022/12/29 03:22:55;;;;;;;15.63;5.87;;;;;;;;;;1905228;75;21133;-48
2022/12/29 03:25:25;;;;;;;11.22;5.25;;;;;;;;;;1905402;75;21018;-49
2022/12/29 03:27:55;;;;;;;9.63;4.85;;;;;;;;;;1905274;75;21121;-48
2022/12/29 03:30:24;;;;;;;9.00;4.65;;;;;;;;;;1905284;75;21032;-50
2022/12/29 03:32:55;;;;;;;14.23;7.00;;;;;;;;;;1905347;75;21104;-50
2022/12/29 03:35:26;;;;;;;11.97;5.65;;;;;;;;;;1905325;75;21102;-49
2022/12/29 03:38:02;;;;;;;16.25;5.70;;;;;;;;;;1905236;75;21103;-49
2022/12/29 03:40:32;;;;;;;10.88;5.22;;;;;;;;;;1905332;75;21122;-48
2022/12/29 03:43:02;;;;;;;13.50;5.67;;;;;;;;;;1905239;75;21145;-49
2022/12/29 03:45:31;;;;;;;19.55;6.53;;;;;;;;;;1905289;75;21073;-49
2022/12/29 03:48:00;;;;;;;9.40;5.03;;;;;;;;;;1905246;75;21030;-50
2022/12/29 03:50:29;;;;;;;8.08;4.95;;;;;;;;;;1905302;75;21015;-52
2022/12/29 03:52:58;;;;;;;13.00;4.87;;;;;;;;;;1905331;75;21101;-49
2022/12/29 03:55:28;;;;;;;11.57;6.00;;;;;;;;;;1909156;74;21114;-52
2022/12/29 03:57:58;;;;;;;10.68;5.40;;;;;;;;;;1924622;74;21039;-50
2022/12/29 04:00:28;;;;;;;10.60;5.67;;;;;;;;;;1923011;74;21525;-49
2022/12/29 04:02:57;;;;;;;17.37;6.58;;;;;;;;;;1924674;74;21031;-50
2022/12/29 04:05:26;;;;;;;13.70;6.78;;;;;;;;;;1924782;74;21064;-50
2022/12/29 04:07:56;;;;;;;8.95;5.45;;;;;;;;;;1924793;74;21046;-50
2022/12/29 04:10:25;;;;;;;12.43;4.72;;;;;;;;;;1924926;74;21031;-49
2022/12/29 04:12:55;;;;;;;11.65;5.70;;;;;;;;;;1924409;74;21128;-50
2022/12/29 04:15:26;;;;;;;16.57;6.12;;;;;;;;;;1924783;74;21042;-48
2022/12/29 04:17:54;;;;;;;10.55;5.50;;;;;;;;;;1924918;74;21464;-49
2022/12/29 04:23:10;;;;;;;16.15;7.70;;;;;;;;;;1924777;74;21321;-52
2022/12/29 04:25:39;;;;;;;27.90;11.83;;;;;;;;;;1924704;74;21027;-50
2022/12/29 04:28:09;;;;;;;32.28;13.78;;;;;;;;;;1924740;74;21106;-50
2022/12/29 04:30:58;;;;;;;33.83;13.43;;;;;;;;;;1924849;74;21071;-48
2022/12/29 04:33:31;;;;;;;37.60;15.00;;;;;;;;;;1923966;74;21129;-49
2022/12/29 04:36:00;;;;;;;19.40;9.70;;;;;;;;;;1924764;74;21031;-50
2022/12/29 04:38:29;;;;;;;18.50;8.43;;;;;;;;;;1924818;74;21035;-50
2022/12/29 04:40:59;;;;;;;19.17;9.03;;;;;;;;;;1924965;74;21031;-49
2022/12/29 04:43:28;;;;;;;17.40;7.70;;;;;;;;;;1924841;74;21034;-50
2022/12/29 04:46:15;;;;;;;23.67;8.85;;;;;;;;;;1924763;74;21019;-49
2022/12/29 04:48:54;;;;;;;24.63;7.20;;;;;;;;;;1902140;74;21058;-50
2022/12/29 04:51:30;;;;;;;24.18;8.55;;;;;;;;;;1921229;74;21179;-49
2022/12/29 04:53:59;;;;;;;25.43;8.33;;;;;;;;;;1924876;74;21015;-52
2022/12/29 04:56:29;;;;;;;23.27;7.95;;;;;;;;;;1916190;74;21059;-49
2022/12/29 04:58:59;;;;;;;14.47;7.15;;;;;;;;;;1905478;75;21039;-49
2022/12/29 05:01:28;;;;;;;20.20;6.92;;;;;;;;;;1905556;75;21536;-49
2022/12/29 05:03:57;;;;;;;11.35;6.28;;;;;;;;;;1905401;75;21039;-50
2022/12/29 05:06:26;;;;;;;20.15;11.08;;;;;;;;;;1905306;75;21031;-49
2022/12/29 05:08:54;;;;;;;25.37;6.95;;;;;;;;;;1905343;75;21036;-49
2022/12/29 05:11:23;;;;;;;19.02;8.00;;;;;;;;;;1905338;75;21031;-50
2022/12/29 05:13:54;;;;;;;11.88;7.20;;;;;;;;;;1905206;74;21067;-52
2022/12/29 05:16:23;;;;;;;22.45;9.90;;;;;;;;;;1905476;75;21031;-48
2022/12/29 05:18:54;;;;;;;18.85;8.65;;;;;;;;;;1905377;75;21036;-49
2022/12/29 05:21:22;;;;;;;18.30;7.92;;;;;;;;;;1905345;75;21085;-48
2022/12/29 05:23:51;;;;;;;16.32;9.35;;;;;;;;;;1905382;75;21007;-51
2022/12/29 05:26:20;;;;;;;21.25;10.88;;;;;;;;;;1905367;75;21095;-50
2022/12/29 05:28:51;;;;;;;18.42;7.45;;;;;;;;;;1904663;74;21103;-49
2022/12/29 05:31:20;;;;;;;24.37;7.30;;;;;;;;;;1905345;75;21075;-53
2022/12/29 05:33:49;;;;;;;11.05;4.70;;;;;;;;;;1905366;75;21526;-49
2022/12/29 05:36:18;;;;;;;7.70;4.17;;;;;;;;;;1905357;75;21035;-50
2022/12/29 05:38:49;;;;;;;8.75;5.03;;;;;;;;;;1905270;74;21068;-53
2022/12/29 05:41:18;;;;;;;8.03;4.03;;;;;;;;;;1892544;75;21036;-51
2022/12/29 05:43:54;;;;;;;11.35;4.95;;;;;;;;;;1905296;75;21048;-52
2022/12/29 05:46:40;;;;;;;7.78;4.70;;;;;;;;;;1905273;74;21031;-53
2022/12/29 05:49:13;;;;;;;17.90;7.05;;;;;;;;;;1905019;74;21497;-52
2022/12/29 05:51:55;;;;;;;22.87;6.80;;;;;;;;;;1905125;74;21146;-52
2022/12/29 05:54:24;;;;;;;10.25;4.28;;;;;;;;;;1905323;75;21019;-51
2022/12/29 05:56:53;;;;;;;10.90;5.90;;;;;;;;;;1912861;74;21062;-50
2022/12/29 05:59:22;;;;;;;9.38;5.40;;;;;;;;;;1924929;74;21108;-53
2022/12/29 06:01:52;;;;;;;13.15;5.08;;;;;;;;;;1904313;74;21469;-51
2022/12/29 06:04:21;;;;;;;6.87;4.00;;;;;;;;;;1924722;74;21030;-49
2022/12/29 06:06:50;;;;;;;9.85;4.50;;;;;;;;;;1924672;74;21092;-49
2022/12/29 06:09:20;;;;;;;8.65;4.22;;;;;;;;;;1923882;74;21122;-52
2022/12/29 06:11:49;;;;;;;7.78;3.37;;;;;;;;;;1924809;74;21034;-49
2022/12/29 06:14:18;;;;;;;6.35;4.30;;;;;;;;;;1924838;74;21046;-48
2022/12/29 06:16:46;;;;;;;6.45;3.95;;;;;;;;;;1924859;74;21092;-50
2022/12/29 06:19:15;;;;;;;9.38;4.42;;;;;;;;;;1925002;74;21112;-49
2022/12/29 06:21:43;;;;;;;7.62;3.75;;;;;;;;;;1924848;74;21031;-50
2022/12/29 06:24:12;;;;;;;8.88;4.50;;;;;;;;;;1924936;74;21034;-49
2022/12/29 06:26:41;;;;;;;11.05;4.35;;;;;;;;;;1924901;74;21147;-51
2022/12/29 06:29:10;;;;;;;9.73;4.50;;;;;;;;;;1924926;74;21010;-50
2022/12/29 06:31:38;;;;;;;8.40;4.08;;;;;;;;;;1924964;74;21064;-49
2022/12/29 06:34:07;;;;;;;13.25;4.67;;;;;;;;;;1924843;74;21003;-50
2022/12/29 06:36:36;;;;;;;10.75;4.22;;;;;;;;;;1924897;74;21043;-48
2022/12/29 06:39:06;;;;;;;6.85;3.60;;;;;;;;;;1924921;74;21106;-51
2022/12/29 06:41:35;;;;;;;7.05;3.60;;;;;;;;;;1924948;74;21088;-50
2022/12/29 06:44:17;;;;;;;6.87;3.72;;;;;;;;;;1923730;74;21137;-52
2022/12/29 06:46:53;;;;;;;6.10;3.35;;;;;;;;;;1923349;74;21071;-50
2022/12/29 06:49:22;;;;;;;7.65;3.22;;;;;;;;;;1924830;74;20999;-53
2022/12/29 06:51:50;;;;;;;7.72;4.12;;;;;;;;;;1924923;74;21103;-50
2022/12/29 06:54:19;;;;;;;10.13;3.92;;;;;;;;;;1924720;74;21013;-50
2022/12/29 06:56:48;;;;;;;9.15;4.33;;;;;;;;;;1924699;74;21046;-51
2022/12/29 06:59:17;;;;;;;11.65;3.92;;;;;;;;;;1924683;74;21090;-50
2022/12/29 07:01:46;;;;;;;12.18;4.60;;;;;;;;;;1924737;74;21031;-50
2022/12/29 07:04:15;;;;;;;9.18;5.17;;;;;;;;;;1924730;74;21038;-50
2022/12/29 07:06:43;;;;;;;10.05;5.58;;;;;;;;;;1924704;74;21117;-52
2022/12/29 07:09:12;;;;;;;9.03;4.85;;;;;;;;;;1924738;74;21031;-49
2022/12/29 07:11:40;;;;;;;8.35;4.33;;;;;;;;;;1924845;74;21137;-53
2022/12/29 07:14:11;;;;;;;11.55;4.58;;;;;;;;;;1924722;74;21031;-50
2022/12/29 07:16:39;;;;;;;9.25;5.00;;;;;;;;;;1924737;74;21077;-49
2022/12/29 07:19:08;;;;;;;6.42;4.28;;;;;;;;;;1924878;74;20979;-49
2022/12/29 07:21:36;;;;;;;9.00;4.62;;;;;;;;;;1924769;74;21045;-49
2022/12/29 07:24:05;;;;;;;7.05;4.62;;;;;;;;;;1924724;74;21003;-49
2022/12/29 07:26:34;;;;;;;9.30;4.85;;;;;;;;;;1924633;74;20991;-51
2022/12/29 07:29:03;;;;;;;11.80;4.83;;;;;;;;;;1924691;74;21090;-52
2022/12/29 07:31:32;;;;;;;5.22;4.00;;;;;;;;;;1924753;74;21116;-48
2022/12/29 07:34:01;;;;;;;5.45;3.83;;;;;;;;;;1924570;74;21100;-49
2022/12/29 07:36:29;;;;;;;5.50;3.35;;;;;;;;;;1924643;74;21035;-50
2022/12/29 07:38:58;;;;;;;8.30;3.87;;;;;;;;;;1924707;74;21030;-48
2022/12/29 07:41:26;;;;;;;12.10;5.97;;;;;;;;;;1924688;74;21019;-51
2022/12/29 07:43:55;;;;;;;8.75;2.92;;;;;;;;;;1924673;74;21007;-50
2022/12/29 07:46:42;;;;;;;4.92;3.10;;;;;;;;;;1924623;74;21509;-48
2022/12/29 07:49:11;;;;;;;5.83;2.85;;;;;;;;;;1924628;74;21100;-50
2022/12/29 07:51:39;;;;;;;5.30;3.58;;;;;;;;;;1924740;74;21015;-49
2022/12/29 07:54:09;;;;;;;5.28;2.62;;;;;;;;;;1924600;74;21092;-51
2022/12/29 07:56:37;;;;;;;7.15;3.17;;;;;;;;;;1924630;74;21002;-52
2022/12/29 07:59:06;;;;;;;11.15;6.40;;;;;;;;;;1924866;74;21108;-48
2022/12/29 08:01:35;;;;;;;12.75;8.23;;;;;;;;;;1924700;74;21011;-49
2022/12/29 08:04:04;;;;;;;5.83;4.10;;;;;;;;;;1924532;74;21106;-52
2022/12/29 08:06:32;;;;;;;4.97;2.72;;;;;;;;;;1922943;74;21086;-53
2022/12/29 08:09:01;;;;;;;6.87;5.37;;;;;;;;;;1924015;74;21066;-50
2022/12/29 08:11:30;;;;;;;4.75;3.22;;;;;;;;;;1924176;74;21074;-46
2022/12/29 08:13:59;;;;;;;4.33;3.02;;;;;;;;;;1923926;74;21085;-47
2022/12/29 08:16:27;;;;;;;4.35;2.27;;;;;;;;;;1924126;74;21031;-50
2022/12/29 08:18:57;;;;;;;9.58;2.85;;;;;;;;;;1923754;74;21097;-46
2022/12/29 08:21:26;;;;;;;6.03;2.77;;;;;;;;;;1923841;74;21159;-48
2022/12/29 08:23:54;;;;;;;6.35;3.25;;;;;;;;;;1924159;74;21102;-45
2022/12/29 08:26:23;;;;;;;7.20;3.47;;;;;;;;;;1924001;74;21039;-46
2022/12/29 08:28:55;;;;;;;4.97;3.33;;;;;;;;;;1923917;74;21055;-45
2022/12/29 08:31:24;;;;;;;6.42;3.02;;;;;;;;;;1923880;74;21023;-47
2022/12/29 08:33:53;;;;;;;11.63;2.95;;;;;;;;;;1924040;74;21105;-49
2022/12/29 08:36:21;;;;;;;6.50;2.90;;;;;;;;;;1923834;74;21069;-45
2022/12/29 08:38:50;;;;;;;9.10;3.37;;;;;;;;;;1923892;74;21028;-46
2022/12/29 08:41:18;;;;;;;7.05;3.60;;;;;;;;;;1923940;74;21082;-46
2022/12/29 08:43:47;;;;;;;4.75;3.10;;;;;;;;;;1923928;74;21031;-48
2022/12/29 08:46:16;;;;;;;13.13;3.80;;;;;;;;;;1923983;74;21112;-51
2022/12/29 08:48:45;;;;;;;8.80;3.42;;;;;;;;;;1923989;74;21042;-47
2022/12/29 08:51:13;;;;;;;10.82;4.42;;;;;;;;;;1923916;74;21335;-50
2022/12/29 08:53:42;;;;;;;5.22;2.10;;;;;;;;;;1923374;74;21066;-47
2022/12/29 08:56:11;;;;;;;3.02;2.72;;;;;;;;;;1924030;74;21011;-48
2022/12/29 08:58:44;;;;;;;4.80;1.82;;;;;;;;;;1912741;74;21035;-50
2022/12/29 09:01:13;;;;;;;4.03;2.08;;;;;;;;;;1904748;75;21037;-49
2022/12/29 09:03:42;;;;;;;2.45;1.80;;;;;;;;;;1904756;75;21110;-48
2022/12/29 09:06:10;;;;;;;2.80;2.12;;;;;;;;;;1904663;75;21077;-48
2022/12/29 09:08:39;;;;;;;7.33;2.58;;;;;;;;;;1904640;75;21089;-48
2022/12/29 09:11:15;;;;;;;10.60;2.37;;;;;;;;;;1904715;75;21031;-51
2022/12/29 09:13:43;;;;;;;3.47;1.90;;;;;;;;;;1904622;75;21102;-50
2022/12/29 09:16:12;;;;;;;6.62;2.20;;;;;;;;;;1904818;75;21095;-46
2022/12/29 09:18:41;;;;;;;6.55;1.92;;;;;;;;;;1904604;75;21036;-53
2022/12/29 09:21:10;;;;;;;15.68;2.72;;;;;;;;;;1904552;75;21059;-46
2022/12/29 09:23:39;;;;;;;4.10;2.72;;;;;;;;;;1904690;75;21055;-48
2022/12/29 09:26:07;;;;;;;4.62;2.40;;;;;;;;;;1904612;75;21085;-47
2022/12/29 09:28:36;;;;;;;2.37;2.17;;;;;;;;;;1904806;75;20999;-48
2022/12/29 09:31:05;;;;;;;5.90;2.33;;;;;;;;;;1904675;75;21152;-46
2022/12/29 09:33:34;;;;;;;3.58;2.22;;;;;;;;;;1904656;75;21040;-47
2022/12/29 09:36:03;;;;;;;7.58;2.00;;;;;;;;;;1904661;75;21094;-50
2022/12/29 09:38:31;;;;;;;5.30;2.40;;;;;;;;;;1904758;75;21036;-49
2022/12/29 09:41:01;;;;;;;8.93;5.10;;;;;;;;;;1904643;75;21023;-50
2022/12/29 09:43:40;;;;;;;4.37;3.25;;;;;;;;;;1903908;74;21058;-48
2022/12/29 09:46:16;;;;;;;3.60;2.12;;;;;;;;;;1904570;75;21105;-47
2022/12/29 09:48:46;;;;;;;6.65;2.42;;;;;;;;;;1904226;74;21040;-48
2022/12/29 09:51:16;;;;;;;11.12;2.37;;;;;;;;;;1904845;75;21497;-49
2022/12/29 09:53:45;;;;;;;2.98;1.82;;;;;;;;;;1904562;75;21058;-49
2022/12/29 09:56:15;;;;;;;3.25;2.05;;;;;;;;;;1904657;75;21078;-51
2022/12/29 09:59:02;;;;;;;3.83;2.05;;;;;;;;;;1911782;74;21110;-54
2022/12/29 10:01:32;;;;;;;5.10;1.90;;;;;;;;;;1924159;74;21011;-46
2022/12/29 10:04:05;;;;;;;7.97;2.85;;;;;;;;;;1922913;74;21072;-46
2022/12/29 10:06:47;;;;;;;4.87;2.00;;;;;;;;;;1924009;74;21496;-45
2022/12/29 10:09:26;;;;;;;3.85;1.98;;;;;;;;;;1923802;74;21076;-44
2022/12/29 10:12:12;;;;;;;4.40;1.50;;;;;;;;;;1924104;74;21014;-46
2022/12/29 10:14:57;;;;;;;2.80;1.52;;;;;;;;;;1924058;74;21167;-45
2022/12/29 10:17:45;;;;;;;3.90;2.40;;;;;;;;;;1923590;74;21082;-45
2022/12/29 10:20:15;;;;;;;3.27;2.30;;;;;;;;;;1923913;74;21055;-45
2022/12/29 10:23:04;;;;;;;6.33;2.37;;;;;;;;;;1923969;74;21039;-46
2022/12/29 10:25:37;;;;;;;8.03;3.40;;;;;;;;;;1923928;74;21090;-46
2022/12/29 10:28:13;;;;;;;7.12;2.12;;;;;;;;;;1923972;74;21018;-45
2022/12/29 10:30:42;;;;;;;10.63;2.95;;;;;;;;;;1914030;74;21047;-47
2022/12/29 10:33:11;;;;;;;6.50;2.08;;;;;;;;;;1924912;74;21026;-48
2022/12/29 10:35:42;;;;;;;4.87;2.60;;;;;;;;;;1924709;74;21019;-48
2022/12/29 10:38:12;;;;;;;12.28;1.87;;;;;;;;;;1924774;74;21465;-49
2022/12/29 10:40:45;;;;;;;4.55;3.08;;;;;;;;;;1916618;74;21216;-50
2022/12/29 10:43:27;;;;;;;6.15;2.27;;;;;;;;;;1924848;74;21034;-51
2022/12/29 10:45:57;;;;;;;4.22;1.75;;;;;;;;;;1924868;74;21011;-48
2022/12/29 10:48:29;;;;;;;7.08;3.02;;;;;;;;;;1924713;74;21019;-51
2022/12/29 10:50:59;;;;;;;7.87;2.33;;;;;;;;;;1924721;74;21100;-48
2022/12/29 10:53:28;;;;;;;4.17;1.95;;;;;;;;;;1924759;74;21548;-51
2022/12/29 10:55:57;;;;;;;7.62;2.15;;;;;;;;;;1924017;74;21046;-52
2022/12/29 10:58:26;;;;;;;5.87;2.20;;;;;;;;;;1924734;74;21011;-54
2022/12/29 11:00:55;;;;;;;3.77;1.90;;;;;;;;;;1924739;74;20975;-54
2022/12/29 11:03:31;;;;;;;2.90;1.75;;;;;;;;;;1924822;74;21135;-53
2022/12/29 11:06:10;;;;;;;15.35;3.45;;;;;;;;;;1923533;74;21007;-53
2022/12/29 11:08:40;;;;;;;6.37;2.20;;;;;;;;;;1924772;74;21107;-51
2022/12/29 11:11:10;;;;;;;6.12;1.85;;;;;;;;;;1924748;74;21438;-51
2022/12/29 11:13:49;;;;;;;7.75;2.15;;;;;;;;;;1924646;74;21002;-52
2022/12/29 11:16:18;;;;;;;11.50;3.02;;;;;;;;;;1924760;74;21199;-53
2022/12/29 11:18:47;;;;;;;6.00;2.40;;;;;;;;;;1916590;74;21061;-52
2022/12/29 11:21:33;;;;;;;9.65;3.40;;;;;;;;;;1924680;74;21159;-53
2022/12/29 11:24:00;;;;;;;;;;;;;;;;;;1927554;74;21006;-54
2022/12/29 11:26:30;;;;;;;6.53;2.50;;;;;;;;;;1924694;74;20410;-53
2022/12/29 11:29:16;;;;;;;3.77;2.30;;;;;;;;;;1924630;74;21064;-51
2022/12/29 11:31:46;;;;;;;11.88;3.02;;;;;;;;;;1924818;74;21007;-53
2022/12/29 11:34:25;;;;;;;7.50;3.05;;;;;;;;;;1923946;74;21014;-52
2022/12/29 11:36:55;;;;;;;6.08;1.65;;;;;;;;;;1923638;74;21104;-49
2022/12/29 11:39:25;;;;;;;9.53;3.05;;;;;;;;;;1924523;74;20991;-52
2022/12/29 11:41:54;;;;;;;5.53;1.92;;;;;;;;;;1921905;74;20990;-50
2022/12/29 11:44:23;;;;;;;1.62;1.42;;;;;;;;;;1924701;74;21124;-50
2022/12/29 11:46:52;;;;;;;10.95;2.47;;;;;;;;;;1924670;74;21076;-53
2022/12/29 11:49:22;;;;;;;3.42;1.90;;;;;;;;;;1924574;74;21102;-49
2022/12/29 11:51:52;;;;;;;1.77;1.67;;;;;;;;;;1924901;74;21523;-51
2022/12/29 11:54:21;;;;;;;4.30;2.05;;;;;;;;;;1924740;74;21030;-52
2022/12/29 11:56:51;;;;;;;4.62;2.65;;;;;;;;;;1924785;74;21007;-51
2022/12/29 11:59:27;;;;;;;3.72;2.08;;;;;;;;;;1924736;74;21046;-52
2022/12/29 12:01:57;;;;;;;5.80;1.70;;;;;;;;;;1923596;74;20987;-52
2022/12/29 12:04:33;;;;;;;4.47;2.20;;;;;;;;;;1924890;74;21104;-53
2022/12/29 12:07:03;;;;;;;21.02;3.98;;;;;;;;;;1924839;74;21035;-52
2022/12/29 12:09:45;;;;;;;9.10;2.58;;;;;;;;;;1924762;74;21015;-54
2022/12/29 12:12:24;;;;;;;3.05;1.67;;;;;;;;;;1924838;74;21011;-50
2022/12/29 12:14:59;;;;;;;5.40;2.00;;;;;;;;;;1924658;74;21072;-52
2022/12/29 12:17:40;;;;;;;15.48;5.35;;;;;;;;;;1909719;74;21121;-51
2022/12/29 12:20:13;;;;;;;16.35;4.50;;;;;;;;;;1924168;74;21011;-52
2022/12/29 12:22:45;;;;;;;3.95;2.05;;;;;;;;;;1924706;74;21015;-51
2022/12/29 12:25:15;;;;;;;4.30;1.90;;;;;;;;;;1924557;74;21047;-51
2022/12/29 12:27:48;;;;;;;4.42;1.87;;;;;;;;;;1924574;74;21014;-54
2022/12/29 12:30:21;;;;;;;4.60;1.82;;;;;;;;;;1924859;74;21042;-54
2022/12/29 12:33:08;;;;;;;7.83;2.35;;;;;;;;;;1924893;74;21064;-54
2022/12/29 12:35:38;;;;;;;7.58;2.20;;;;;;;;;;1924758;74;21011;-52
2022/12/29 12:38:20;;;;;;;2.87;1.92;;;;;;;;;;1923874;74;20991;-53
2022/12/29 12:40:55;;;;;;;5.05;2.25;;;;;;;;;;1924885;74;21039;-52
2022/12/29 12:43:25;;;;;;;2.85;1.87;;;;;;;;;;1913707;74;21042;-51
2022/12/29 12:46:12;;;;;;;7.85;3.33;;;;;;;;;;1923784;74;21096;-53
2022/12/29 12:48:42;;;;;;;5.20;1.70;;;;;;;;;;1924740;74;21011;-51
2022/12/29 12:51:12;;;;;;;3.50;1.75;;;;;;;;;;1924768;74;21015;-51
2022/12/29 12:53:51;;;;;;;6.05;2.00;;;;;;;;;;1923817;74;21497;-52
2022/12/29 12:56:30;;;;;;;5.08;2.12;;;;;;;;;;1924776;74;21104;-54
2022/12/29 12:59:06;;;;;;;2.40;1.55;;;;;;;;;;1924757;74;21015;-51
2022/12/29 13:01:51;;;;;;;7.58;2.83;;;;;;;;;;1881282;76;21001;-53
2022/12/29 13:04:21;;;;;;;15.32;3.37;;;;;;;;;;1845582;78;21054;-52
2022/12/29 13:06:50;;;;;;;9.33;3.25;;;;;;;;;;1844533;78;21026;-50
2022/12/29 13:09:36;;;;;;;8.38;3.72;;;;;;;;;;1824010;79;21038;-51
2022/12/29 13:12:05;;;;;;;10.93;2.85;;;;;;;;;;1824231;79;21035;-52
2022/12/29 13:14:42;;;;;;;13.35;2.77;;;;;;;;;;1852670;77;21081;-52
2022/12/29 13:17:11;;;;;;;7.42;3.05;;;;;;;;;;1841547;78;21065;-50
2022/12/29 13:19:44;;;;;;;15.08;4.20;;;;;;;;;;1812794;79;21500;-51
2022/12/29 13:22:14;;;;;;;12.07;2.65;;;;;;;;;;1846821;78;20994;-51
2022/12/29 13:24:44;;;;;;;4.97;2.02;;;;;;;;;;1824041;79;21132;-50
2022/12/29 13:27:17;;;;;;;6.80;2.00;;;;;;;;;;1823777;78;21034;-50
2022/12/29 13:29:52;;;;;;;4.65;2.08;;;;;;;;;;1824112;79;21046;-53
2022/12/29 13:32:28;;;;;;;8.10;2.40;;;;;;;;;;1823601;78;21002;-50
2022/12/29 13:35:10;;;;;;;4.17;2.30;;;;;;;;;;1823978;79;21088;-52
2022/12/29 13:37:40;;;;;;;4.12;1.90;;;;;;;;;;1824009;79;21038;-52
2022/12/29 13:40:13;;;;;;;7.92;2.10;;;;;;;;;;1823564;78;21059;-53
2022/12/29 13:42:42;;;;;;;9.20;1.95;;;;;;;;;;1853236;77;21057;-53
2022/12/29 13:45:12;;;;;;;6.70;2.17;;;;;;;;;;1853331;77;21076;-49
2022/12/29 13:47:42;;;;;;;3.40;2.25;;;;;;;;;;1841888;77;21025;-51
2022/12/29 13:50:15;;;;;;;13.68;3.45;;;;;;;;;;1785108;79;21080;-51
2022/12/29 13:52:48;;;;;;;5.10;1.95;;;;;;;;;;1846947;78;21073;-50
2022/12/29 13:55:33;;;;;;;3.15;1.90;;;;;;;;;;1839831;78;21078;-52
2022/12/29 13:58:01;;;;;;;;;;;;;;;;;;1826830;79;21116;-50
2022/12/29 14:00:31;;;;;;;5.22;2.47;;;;;;;;;;1841002;77;20140;-53
2022/12/29 14:03:04;;;;;;;5.97;2.20;;;;;;;;;;1869283;77;21064;-49
2022/12/29 14:05:33;;;;;;;6.05;2.30;;;;;;;;;;1880322;76;21156;-49
2022/12/29 14:08:03;;;;;;;5.15;2.10;;;;;;;;;;1881223;76;20998;-50
2022/12/29 14:10:36;;;;;;;5.78;2.75;;;;;;;;;;1860032;77;21059;-53
2022/12/29 14:13:18;;;;;;;4.33;2.77;;;;;;;;;;1862590;77;21055;-50
2022/12/29 14:15:47;;;;;;;4.37;2.60;;;;;;;;;;1862592;77;21051;-50
2022/12/29 14:18:17;;;;;;;6.05;2.47;;;;;;;;;;1862271;77;21110;-53
2022/12/29 14:21:03;;;;;;;10.25;3.95;;;;;;;;;;1862686;77;21540;-51
2022/12/29 14:23:47;;;;;;;6.35;3.05;;;;;;;;;;1862574;77;21082;-51
2022/12/29 14:26:18;;;;;;;6.87;2.92;;;;;;;;;;1862866;77;21031;-52
2022/12/29 14:28:47;;;;;;;5.35;2.83;;;;;;;;;;1862633;77;21085;-55
2022/12/29 14:31:17;;;;;;;4.70;2.25;;;;;;;;;;1862604;77;21146;-52
2022/12/29 14:34:04;;;;;;;4.95;2.30;;;;;;;;;;1862571;77;21024;-50
2022/12/29 14:36:43;;;;;;;4.60;2.50;;;;;;;;;;1862612;77;21052;-54
2022/12/29 14:39:28;;;;;;;8.33;3.50;;;;;;;;;;1862556;77;21515;-50
2022/12/29 14:42:07;;;;;;;5.50;3.37;;;;;;;;;;1862805;77;21032;-50
2022/12/29 14:44:37;;;;;;;8.18;4.33;;;;;;;;;;1862518;77;21019;-54
2022/12/29 14:47:06;;;;;;;14.50;4.70;;;;;;;;;;1860660;77;21024;-53
2022/12/29 14:49:36;;;;;;;10.78;4.87;;;;;;;;;;1862559;77;21094;-50
2022/12/29 14:52:06;;;;;;;15.70;7.37;;;;;;;;;;1860124;77;21075;-51
2022/12/29 14:54:35;;;;;;;18.35;6.53;;;;;;;;;;1862573;77;21047;-50
2022/12/29 14:57:06;;;;;;;29.85;6.83;;;;;;;;;;1862606;77;21118;-51
2022/12/29 14:59:35;;;;;;;21.02;6.20;;;;;;;;;;1862701;77;21179;-51
2022/12/29 15:02:04;;;;;;;19.12;8.00;;;;;;;;;;1854993;77;21091;-51
2022/12/29 15:04:34;;;;;;;32.93;9.50;;;;;;;;;;1905540;75;21008;-51
2022/12/29 15:07:03;;;;;;;12.47;6.50;;;;;;;;;;1905437;75;21105;-54
2022/12/29 15:09:38;;;;;;;24.80;7.72;;;;;;;;;;1905347;75;21015;-51
2022/12/29 15:12:24;;;;;;;25.90;5.33;;;;;;;;;;1905602;74;21078;-51
2022/12/29 15:14:57;;;;;;;17.77;5.55;;;;;;;;;;1905422;75;21082;-51
2022/12/29 15:17:30;;;;;;;16.65;6.08;;;;;;;;;;1905441;75;21541;-51
2022/12/29 15:19:59;;;;;;;19.50;6.12;;;;;;;;;;1905491;75;21121;-51
2022/12/29 15:22:28;;;;;;;11.80;5.35;;;;;;;;;;1905444;75;21126;-50
2022/12/29 15:24:57;;;;;;;17.55;5.58;;;;;;;;;;1905382;75;21011;-49
2022/12/29 15:27:27;;;;;;;16.80;5.45;;;;;;;;;;1905454;75;21039;-53
2022/12/29 15:30:01;;;;;;;23.98;9.15;;;;;;;;;;1905279;75;21000;-52
2022/12/29 15:32:31;;;;;;;13.88;6.45;;;;;;;;;;1905456;75;21097;-52
2022/12/29 15:35:01;;;;;;;14.85;5.90;;;;;;;;;;1904523;74;21092;-53
2022/12/29 15:37:30;;;;;;;22.98;7.00;;;;;;;;;;1905346;75;20999;-53
2022/12/29 15:39:59;;;;;;;21.80;7.25;;;;;;;;;;1905304;75;21067;-51